createdAt,value
2018-06-07T00:02:27.222Z,20.23
2018-06-07T00:07:56.444Z,21.52
2018-06-07T00:13:25.693Z,22.00
2018-06-07T00:18:54.923Z,21.40
2018-06-07T00:24:24.083Z,19.33
2018-06-07T00:29:53.302Z,20.45
2018-06-07T00:35:22.573Z,19.10
2018-06-07T00:40:51.795Z,21.17
2018-06-07T00:46:21.029Z,22.35
2018-06-07T00:51:50.232Z,22.85
2018-06-07T00:57:19.448Z,21.63
2018-06-07T01:02:48.629Z,20.12
2018-06-07T01:08:18.013Z,20.02
2018-06-07T01:13:47.325Z,19.20
2018-06-07T01:19:16.767Z,18.30
2018-06-07T01:24:46.045Z,17.98
2018-06-07T01:30:32.361Z,18.30
2018-06-07T01:36:01.984Z,19.30
2018-06-07T01:41:31.228Z,19.52
2018-06-07T01:47:00.445Z,18.90
2018-06-07T01:52:29.700Z,17.75
2018-06-07T01:57:58.901Z,16.30
2018-06-07T02:03:28.107Z,17.57
2018-06-07T02:08:57.354Z,18.57
2018-06-07T02:14:26.579Z,18.35
2018-06-07T02:19:55.779Z,18.30
2018-06-07T02:25:25.011Z,19.73
2018-06-07T02:30:54.237Z,19.35
2018-06-07T02:36:23.435Z,19.02
2018-06-07T02:41:52.769Z,18.57
2018-06-07T02:47:22.105Z,18.77
2018-06-07T02:52:51.437Z,17.70
2018-06-07T02:58:20.710Z,16.73
2018-06-07T03:03:49.990Z,18.30
2018-06-07T03:09:19.203Z,17.60
2018-06-07T03:14:48.388Z,18.45
2018-06-07T03:20:17.652Z,18.20
2018-06-07T03:25:46.876Z,19.50
2018-06-07T03:31:16.192Z,19.20
2018-06-07T03:36:45.582Z,18.10
2018-06-07T03:42:14.879Z,18.23
2018-06-07T03:47:44.309Z,20.15
2018-06-07T03:53:13.658Z,19.02
2018-06-07T03:58:42.971Z,18.10
2018-06-07T04:04:12.257Z,17.40
2018-06-07T04:09:41.705Z,17.60
2018-06-07T04:15:11.287Z,15.03
2018-06-07T04:20:40.607Z,15.18
2018-06-07T04:26:10.953Z,16.73
2018-06-07T04:31:40.909Z,15.70
2018-06-07T04:37:10.285Z,14.05
2018-06-07T04:42:40.023Z,15.00
2018-06-07T04:48:10.217Z,14.70
2018-06-07T04:53:40.712Z,14.73
2018-06-07T04:59:10.142Z,14.43
2018-06-07T05:04:42.070Z,13.32
2018-06-07T05:10:11.320Z,11.43
2018-06-07T05:15:40.635Z,10.75
2018-06-07T05:21:10.021Z,10.40
2018-06-07T05:26:39.249Z,9.75
2018-06-07T05:32:08.525Z,9.33
2018-06-07T05:37:37.755Z,9.45
2018-06-07T05:43:07.043Z,10.25
2018-06-07T05:48:36.245Z,9.48
2018-06-07T05:54:05.738Z,8.83
2018-06-07T05:59:34.967Z,9.98
2018-06-07T06:05:04.344Z,9.93
2018-06-07T06:10:33.599Z,10.88
2018-06-07T06:16:02.858Z,13.85
2018-06-07T06:21:32.110Z,12.00
2018-06-07T06:27:01.170Z,13.40
2018-06-07T06:32:30.381Z,13.65
2018-06-07T06:38:34.890Z,14.43
2018-06-07T06:44:04.268Z,12.30
2018-06-07T06:49:33.601Z,12.85
2018-06-07T06:55:02.749Z,13.60
2018-06-07T07:00:31.983Z,14.65
2018-06-07T07:06:01.209Z,13.95
2018-06-07T07:11:30.449Z,13.40
2018-06-07T07:16:59.685Z,15.53
2018-06-07T07:22:28.968Z,15.32
2018-06-07T07:27:58.280Z,14.60
2018-06-07T07:33:27.544Z,15.13
2018-06-07T07:38:56.771Z,15.05
2018-06-07T07:44:25.991Z,14.57
2018-06-07T07:49:55.205Z,15.17
2018-06-07T07:55:24.400Z,16.00
2018-06-07T08:00:53.616Z,13.65
2018-06-07T08:06:22.874Z,15.83
2018-06-07T08:11:52.137Z,15.73
2018-06-07T08:17:21.423Z,16.20
2018-06-07T08:22:50.651Z,16.07
2018-06-07T08:28:19.919Z,15.93
2018-06-07T08:33:49.210Z,15.08
2018-06-07T08:39:18.495Z,15.03
2018-06-07T08:44:47.802Z,15.43
2018-06-07T08:50:17.045Z,16.43
2018-06-07T08:55:46.315Z,16.63
2018-06-07T09:01:15.742Z,14.40
2018-06-07T09:06:45.159Z,15.88
2018-06-07T09:12:14.577Z,17.47
2018-06-07T09:17:43.863Z,14.93
2018-06-07T09:23:13.135Z,15.40
2018-06-07T09:28:42.471Z,15.80
2018-06-07T09:34:11.727Z,17.43
2018-06-07T09:39:41.182Z,16.50
2018-06-07T09:45:10.483Z,15.90
2018-06-07T09:50:39.916Z,15.63
2018-06-07T09:56:09.116Z,14.40
2018-06-07T10:01:38.413Z,15.90
2018-06-07T10:07:07.723Z,15.33
2018-06-07T10:12:36.948Z,13.55
2018-06-07T10:18:06.329Z,13.57
2018-06-07T10:23:35.626Z,15.00
2018-06-07T10:29:05.094Z,13.17
2018-06-07T10:34:34.349Z,11.70
2018-06-07T10:40:03.723Z,13.60
2018-06-07T10:45:33.066Z,13.60
2018-06-07T10:51:02.297Z,12.57
2018-06-07T10:56:31.524Z,13.88
2018-06-07T11:02:00.508Z,11.90
2018-06-07T11:07:29.711Z,13.30
2018-06-07T11:12:58.964Z,14.23
2018-06-07T11:18:27.913Z,13.03
2018-06-07T11:23:57.239Z,13.40
2018-06-07T11:29:26.442Z,13.20
2018-06-07T11:34:55.663Z,11.77
2018-06-07T11:40:24.925Z,15.85
2018-06-07T11:45:54.171Z,14.33
2018-06-07T11:51:23.440Z,14.57
2018-06-07T11:56:52.672Z,15.53
2018-06-07T12:02:21.865Z,14.87
2018-06-07T12:07:51.092Z,15.20
2018-06-07T12:13:20.378Z,18.40
2018-06-07T12:18:50.513Z,16.37
2018-06-07T12:24:19.809Z,16.60
2018-06-07T12:29:49.033Z,16.00
2018-06-07T12:35:18.261Z,14.73
2018-06-07T12:40:47.480Z,14.03
2018-06-07T12:46:16.769Z,15.20
2018-06-07T12:51:46.115Z,16.03
2018-06-07T12:57:15.499Z,14.33
2018-06-07T13:02:44.878Z,18.13
2018-06-07T13:08:14.254Z,17.42
2018-06-07T13:13:45.355Z,16.47
2018-06-07T13:19:14.999Z,16.82
2018-06-07T13:24:44.492Z,16.10
2018-06-07T13:30:13.801Z,16.17
2018-06-07T13:35:44.145Z,16.30
2018-06-07T13:41:13.531Z,16.37
2018-06-07T13:46:42.905Z,14.80
2018-06-07T13:52:11.997Z,13.05
2018-06-07T13:57:41.343Z,13.40
2018-06-07T14:03:10.616Z,13.73
2018-06-07T14:08:39.847Z,13.67
2018-06-07T14:14:09.171Z,13.40
2018-06-07T14:19:38.464Z,12.00
2018-06-07T14:25:07.699Z,13.08
2018-06-07T14:30:36.958Z,13.00
2018-06-07T14:36:07.287Z,13.87
2018-06-07T14:41:36.444Z,12.73
2018-06-07T14:47:05.690Z,11.03
2018-06-07T14:52:34.910Z,12.80
2018-06-07T14:58:04.189Z,11.28
2018-06-07T15:03:36.215Z,7.00
2018-06-07T15:09:08.123Z,4.17
2018-06-07T15:14:37.392Z,5.40
2018-06-07T15:20:06.694Z,6.12
2018-06-07T15:25:35.933Z,5.72
2018-06-07T15:31:05.227Z,5.50
2018-06-07T15:36:34.581Z,4.40
2018-06-07T15:42:03.824Z,5.20
2018-06-07T15:47:33.372Z,4.45
2018-06-07T15:53:02.643Z,3.00
2018-06-07T15:58:31.854Z,3.65
2018-06-07T16:04:01.201Z,4.78
2018-06-07T16:09:30.649Z,3.90
2018-06-07T16:14:59.922Z,5.00
2018-06-07T16:20:29.181Z,5.55
2018-06-07T16:25:58.395Z,5.85
2018-06-07T16:31:27.589Z,5.65
2018-06-07T16:36:56.793Z,6.20
2018-06-07T16:42:25.990Z,6.57
2018-06-07T16:47:55.258Z,6.70
2018-06-07T16:53:24.523Z,7.30
2018-06-07T16:58:53.868Z,9.28
2018-06-07T17:04:23.160Z,8.80
2018-06-07T17:09:53.633Z,9.55
2018-06-07T17:15:22.924Z,9.35
2018-06-07T17:20:52.181Z,12.67
2018-06-07T17:26:21.550Z,10.20
2018-06-07T17:31:50.954Z,9.98
2018-06-07T17:37:20.179Z,11.18
2018-06-07T17:42:49.423Z,13.05
2018-06-07T17:48:18.731Z,13.10
2018-06-07T17:53:48.195Z,14.10
2018-06-07T17:59:17.567Z,11.07
2018-06-07T18:04:47.024Z,10.50
2018-06-07T18:10:16.573Z,10.60
2018-06-07T18:15:46.073Z,10.98
2018-06-07T18:21:15.520Z,11.00
2018-06-07T18:26:45.066Z,12.47
2018-06-07T18:32:14.486Z,11.50
2018-06-07T18:37:43.924Z,11.75
2018-06-07T18:43:13.368Z,10.50
2018-06-07T18:48:42.888Z,12.45
2018-06-07T18:54:12.301Z,12.33
2018-06-07T18:59:42.300Z,12.20
2018-06-07T19:05:11.889Z,12.28
2018-06-07T19:10:41.331Z,15.40
2018-06-07T19:16:11.114Z,14.30
2018-06-07T19:21:40.871Z,13.30
2018-06-07T19:27:15.444Z,14.30
2018-06-07T19:32:50.111Z,12.35
2018-06-07T19:38:19.334Z,11.27
2018-06-07T19:43:48.609Z,13.22
2018-06-07T19:49:17.908Z,11.83
2018-06-07T19:54:47.273Z,13.83
2018-06-07T20:00:16.689Z,13.97
2018-06-07T20:05:46.285Z,12.53
2018-06-07T20:11:15.813Z,14.60
2018-06-07T20:16:45.435Z,15.10
2018-06-07T20:22:15.217Z,15.05
2018-06-07T20:27:44.834Z,15.43
2018-06-07T20:33:14.329Z,17.27
2018-06-07T20:38:43.943Z,17.42
2018-06-07T20:44:14.515Z,18.92
2018-06-07T20:49:45.114Z,19.42
2018-06-07T20:55:14.582Z,22.20
2018-06-07T21:00:44.074Z,19.45
2018-06-07T21:06:13.523Z,20.32
2018-06-07T21:11:43.019Z,21.70
2018-06-07T21:17:14.036Z,26.25
2018-06-07T21:22:48.628Z,19.48
2018-06-07T21:28:22.069Z,23.65
2018-06-07T21:33:52.384Z,24.55
2018-06-07T21:39:26.334Z,27.10
2018-06-07T21:44:55.632Z,30.00
2018-06-07T21:50:25.913Z,31.10
2018-06-07T21:55:55.183Z,34.48
2018-06-07T22:01:25.512Z,31.52
2018-06-07T22:06:54.703Z,31.45
2018-06-07T22:12:23.996Z,31.93
2018-06-07T22:17:53.457Z,31.25
2018-06-07T22:23:23.855Z,33.10
2018-06-07T22:28:54.115Z,30.72
2018-06-07T22:34:23.321Z,31.03
2018-06-07T22:39:52.537Z,33.63
2018-06-07T22:45:21.812Z,32.23
2018-06-07T22:50:51.064Z,32.85
2018-06-07T22:56:20.245Z,33.23
2018-06-07T23:01:51.320Z,31.15
2018-06-07T23:07:20.880Z,29.50
2018-06-07T23:12:50.068Z,30.02
2018-06-07T23:18:18.987Z,28.17
2018-06-07T23:23:48.361Z,26.65
2018-06-07T23:29:17.762Z,27.50
2018-06-07T23:34:47.197Z,30.15
2018-06-07T23:40:16.472Z,29.27
2018-06-07T23:45:45.773Z,29.75
2018-06-07T23:51:15.005Z,29.70
2018-06-07T23:56:44.266Z,30.77
